createdAt,value
2023-03-05T00:01:40.178Z,44.78
2023-03-05T00:03:41.989Z,45.14
2023-03-05T00:05:43.689Z,44.94
2023-03-05T00:07:45.206Z,45.14
2023-03-05T00:09:47.045Z,45.30
2023-03-05T00:11:48.925Z,45.41
2023-03-05T00:13:54.485Z,45.11
2023-03-05T00:15:56.224Z,44.94
2023-03-05T00:17:57.675Z,44.89
2023-03-05T00:20:01.321Z,45.19
2023-03-05T00:22:03.793Z,45.40
2023-03-05T00:24:16.751Z,45.33
2023-03-05T00:26:19.857Z,45.34
2023-03-05T00:28:21.853Z,45.39
2023-03-05T00:30:23.473Z,45.76
2023-03-05T00:32:25.054Z,45.63
2023-03-05T00:34:28.128Z,45.74
2023-03-05T00:36:30.357Z,45.82
2023-03-05T00:38:31.893Z,45.71
2023-03-05T00:40:37.110Z,46.22
2023-03-05T00:42:38.765Z,45.58
2023-03-05T00:44:40.480Z,45.89
2023-03-05T00:46:42.026Z,45.83
2023-03-05T00:48:43.795Z,46.15
2023-03-05T00:50:45.614Z,45.61
2023-03-05T00:52:47.151Z,45.79
2023-03-05T00:54:48.720Z,46.05
2023-03-05T00:56:50.330Z,46.37
2023-03-05T00:58:53.224Z,45.86
2023-03-05T01:00:58.214Z,45.71
2023-03-05T01:02:59.682Z,45.53
2023-03-05T01:05:01.443Z,45.67
2023-03-05T01:07:03.001Z,45.75
2023-03-05T01:09:04.682Z,45.72
2023-03-05T01:11:07.893Z,45.58
2023-03-05T01:13:09.548Z,45.55
2023-03-05T01:15:11.297Z,45.76
2023-03-05T01:17:12.844Z,46.11
2023-03-05T01:19:16.292Z,46.00
2023-03-05T01:21:17.810Z,45.88
2023-03-05T01:23:19.559Z,45.72
2023-03-05T01:25:21.839Z,46.07
2023-03-05T01:27:23.750Z,45.66
2023-03-05T01:29:25.222Z,45.72
2023-03-05T01:31:26.997Z,45.82
2023-03-05T01:33:28.576Z,45.93
2023-03-05T01:35:30.323Z,45.90
2023-03-05T01:37:32.425Z,45.83
2023-03-05T01:39:34.130Z,45.78
2023-03-05T01:41:35.725Z,45.93
2023-03-05T01:43:37.301Z,45.57
2023-03-05T01:45:59.641Z,46.05
2023-03-05T01:48:01.515Z,45.82
2023-03-05T01:50:05.333Z,45.64
2023-03-05T01:52:19.772Z,45.77
2023-03-05T01:54:24.473Z,45.79
2023-03-05T01:56:28.039Z,45.99
2023-03-05T01:58:29.635Z,46.04
2023-03-05T02:00:35.650Z,45.94
2023-03-05T02:02:37.398Z,45.87
2023-03-05T02:04:46.205Z,45.95
2023-03-05T02:06:48.537Z,45.60
2023-03-05T02:08:50.162Z,45.86
2023-03-05T02:10:54.372Z,45.91
2023-03-05T02:13:01.216Z,46.00
2023-03-05T02:15:03.176Z,46.25
2023-03-05T02:17:05.360Z,45.93
2023-03-05T02:19:10.697Z,45.95
2023-03-05T02:21:12.457Z,45.85
2023-03-05T02:23:15.298Z,45.66
2023-03-05T02:25:23.128Z,45.83
2023-03-05T02:27:34.823Z,45.93
2023-03-05T02:29:41.193Z,46.01
2023-03-05T02:31:43.034Z,46.06
2023-03-05T02:33:45.230Z,45.72
2023-03-05T02:35:47.436Z,45.89
2023-03-05T02:37:49.822Z,45.70
2023-03-05T02:39:51.980Z,45.67
2023-03-05T02:41:53.912Z,45.66
2023-03-05T02:43:55.444Z,45.84
2023-03-05T02:45:57.278Z,46.14
2023-03-05T02:47:59.114Z,45.51
2023-03-05T02:50:00.969Z,45.73
2023-03-05T02:52:03.807Z,45.81
2023-03-05T02:54:05.391Z,45.69
2023-03-05T02:56:07.241Z,45.80
2023-03-05T02:58:10.284Z,45.92
2023-03-05T03:00:12.473Z,45.52
2023-03-05T03:02:14.918Z,45.80
2023-03-05T03:04:16.421Z,45.74
2023-03-05T03:06:18.097Z,45.81
2023-03-05T03:08:19.659Z,45.57
2023-03-05T03:10:21.396Z,45.67
2023-03-05T03:12:23.161Z,45.67
2023-03-05T03:14:24.720Z,45.78
2023-03-05T03:16:26.332Z,45.80
2023-03-05T03:18:27.892Z,45.48
2023-03-05T03:20:29.339Z,45.78
2023-03-05T03:22:30.989Z,46.03
2023-03-05T03:24:33.872Z,45.66
2023-03-05T03:26:35.552Z,45.45
2023-03-05T03:28:37.009Z,45.68
2023-03-05T03:30:38.656Z,45.67
2023-03-05T03:32:40.292Z,45.65
2023-03-05T03:34:41.842Z,45.79
2023-03-05T03:36:45.029Z,45.82
2023-03-05T03:38:46.600Z,45.75
2023-03-05T03:40:48.119Z,45.90
2023-03-05T03:42:54.412Z,45.86
2023-03-05T03:44:55.935Z,45.46
2023-03-05T03:46:57.671Z,45.59
2023-03-05T03:48:59.206Z,45.80
2023-03-05T03:51:04.323Z,45.90
2023-03-05T03:53:06.215Z,45.81
2023-03-05T03:55:08.253Z,45.88
2023-03-05T03:57:09.841Z,45.85
2023-03-05T03:59:11.855Z,45.76
2023-03-05T04:01:13.452Z,45.89
2023-03-05T04:03:14.958Z,45.49
2023-03-05T04:05:16.737Z,45.84
2023-03-05T04:07:18.775Z,45.80
2023-03-05T04:09:20.286Z,45.73
2023-03-05T04:11:21.996Z,46.04
2023-03-05T04:13:23.597Z,45.98
2023-03-05T04:15:25.131Z,45.98
2023-03-05T04:17:26.635Z,46.02
2023-03-05T04:19:30.587Z,46.02
2023-03-05T04:21:32.278Z,46.10
2023-03-05T04:23:34.058Z,46.13
2023-03-05T04:25:35.495Z,46.03
2023-03-05T04:27:37.996Z,46.37
2023-03-05T04:29:39.677Z,45.86
2023-03-05T04:31:41.304Z,46.14
2023-03-05T04:33:42.820Z,46.30
2023-03-05T04:35:44.845Z,46.20
2023-03-05T04:37:47.308Z,46.23
2023-03-05T04:39:48.823Z,46.24
2023-03-05T04:41:50.427Z,46.43
2023-03-05T04:43:51.902Z,46.13
2023-03-05T04:45:55.373Z,46.31
2023-03-05T04:47:57.810Z,46.06
2023-03-05T04:49:59.345Z,46.30
2023-03-05T04:52:00.945Z,46.14
2023-03-05T04:54:02.485Z,46.38
2023-03-05T04:56:05.667Z,46.39
2023-03-05T04:58:07.763Z,46.64
2023-03-05T05:00:14.417Z,46.26
2023-03-05T05:02:16.008Z,46.34
2023-03-05T05:04:17.555Z,46.25
2023-03-05T05:06:19.183Z,46.28
2023-03-05T05:08:20.647Z,46.46
2023-03-05T05:10:22.365Z,46.57
2023-03-05T05:12:24.149Z,46.43
2023-03-05T05:14:25.815Z,46.49
2023-03-05T05:16:27.452Z,46.25
2023-03-05T05:18:28.982Z,46.52
2023-03-05T05:20:30.562Z,46.68
2023-03-05T05:22:32.464Z,46.48
2023-03-05T05:24:33.993Z,46.88
2023-03-05T05:26:35.728Z,46.32
2023-03-05T05:28:38.399Z,46.79
2023-03-05T05:30:40.285Z,46.67
2023-03-05T05:32:42.028Z,46.71
2023-03-05T05:34:43.855Z,46.65
2023-03-05T05:36:45.459Z,46.66
2023-03-05T05:38:46.961Z,46.38
2023-03-05T05:40:48.495Z,46.59
2023-03-05T05:42:50.157Z,46.84
2023-03-05T05:44:51.822Z,46.58
2023-03-05T05:46:53.476Z,46.68
2023-03-05T05:48:54.997Z,46.66
2023-03-05T05:50:56.957Z,46.69
2023-03-05T05:52:58.500Z,47.18
2023-03-05T05:55:00.032Z,47.04
2023-03-05T05:57:01.744Z,46.79
2023-03-05T05:59:03.274Z,46.62
2023-03-05T06:01:22.816Z,47.04
2023-03-05T06:03:24.411Z,46.53
2023-03-05T06:05:26.120Z,46.79
2023-03-05T06:07:27.694Z,46.91
2023-03-05T06:09:29.495Z,46.62
2023-03-05T06:11:30.978Z,46.88
2023-03-05T06:13:33.264Z,46.54
2023-03-05T06:15:34.820Z,46.82
2023-03-05T06:17:36.478Z,46.85
2023-03-05T06:19:38.388Z,46.84
2023-03-05T06:21:40.604Z,46.89
2023-03-05T06:23:43.048Z,46.84
2023-03-05T06:25:44.569Z,46.76
2023-03-05T06:27:46.208Z,46.93
2023-03-05T06:29:47.776Z,46.85
2023-03-05T06:31:49.480Z,46.85
2023-03-05T06:33:52.649Z,47.06
2023-03-05T06:35:54.193Z,47.02
2023-03-05T06:37:55.796Z,47.05
2023-03-05T06:39:57.298Z,46.91
2023-03-05T06:41:58.915Z,46.72
2023-03-05T06:44:02.408Z,47.04
2023-03-05T06:46:07.296Z,46.72
2023-03-05T06:48:09.006Z,47.12
2023-03-05T06:50:11.271Z,47.34
2023-03-05T06:52:12.930Z,47.32
2023-03-05T06:54:16.936Z,47.14
2023-03-05T06:56:19.708Z,47.08
2023-03-05T06:58:21.750Z,46.98
2023-03-05T07:00:24.377Z,47.36
2023-03-05T07:02:26.256Z,47.16
2023-03-05T07:04:27.864Z,47.33
2023-03-05T07:06:32.469Z,47.31
2023-03-05T07:08:34.292Z,47.27
2023-03-05T07:10:40.652Z,47.17
2023-03-05T07:12:43.557Z,47.97
2023-03-05T07:14:45.283Z,47.74
2023-03-05T07:16:46.905Z,47.78
2023-03-05T07:18:49.095Z,47.53
2023-03-05T07:20:50.673Z,47.38
2023-03-05T07:22:52.247Z,47.50
2023-03-05T07:24:53.773Z,47.93
2023-03-05T07:26:57.444Z,47.53
2023-03-05T07:28:59.916Z,47.72
2023-03-05T07:31:07.896Z,47.46
2023-03-05T07:33:09.574Z,47.59
2023-03-05T07:35:11.053Z,47.34
2023-03-05T07:37:13.780Z,47.66
2023-03-05T07:39:15.466Z,47.75
2023-03-05T07:41:19.830Z,47.52
2023-03-05T07:43:21.537Z,47.72
2023-03-05T07:45:24.134Z,47.58
2023-03-05T07:47:25.840Z,47.39
2023-03-05T07:49:27.458Z,47.51
2023-03-05T07:51:29.485Z,47.53
2023-03-05T07:53:31.239Z,47.41
2023-03-05T07:55:32.986Z,47.64
2023-03-05T07:57:38.028Z,47.70
2023-03-05T07:59:39.745Z,47.93
2023-03-05T08:01:41.652Z,47.58
2023-03-05T08:03:44.137Z,47.51
2023-03-05T08:05:45.777Z,47.48
2023-03-05T08:07:47.307Z,47.25
2023-03-05T08:09:48.872Z,47.60
2023-03-05T08:11:50.708Z,47.52
2023-03-05T08:13:52.882Z,47.48
2023-03-05T08:15:54.515Z,47.54
2023-03-05T08:17:56.177Z,47.44
2023-03-05T08:20:00.241Z,47.42
2023-03-05T08:22:01.818Z,47.33
2023-03-05T08:24:06.098Z,47.27
2023-03-05T08:26:23.021Z,47.52
2023-03-05T08:28:24.552Z,47.01
2023-03-05T08:30:28.729Z,47.02
2023-03-05T08:32:30.693Z,47.34
2023-03-05T08:34:32.297Z,46.98
2023-03-05T08:36:33.911Z,47.24
2023-03-05T08:38:36.570Z,47.02
2023-03-05T08:40:38.217Z,47.15
2023-03-05T08:42:39.740Z,47.27
2023-03-05T08:44:41.370Z,46.84
2023-03-05T08:46:43.333Z,46.95
2023-03-05T08:48:44.979Z,46.89
2023-03-05T08:50:47.225Z,46.99
2023-03-05T08:52:49.147Z,46.88
2023-03-05T08:54:50.854Z,47.00
2023-03-05T08:56:52.407Z,47.19
2023-03-05T08:58:54.471Z,46.94
2023-03-05T09:00:56.505Z,47.08
2023-03-05T09:02:58.058Z,46.85
2023-03-05T09:04:59.771Z,47.03
2023-03-05T09:07:01.269Z,46.88
2023-03-05T09:09:02.837Z,46.82
2023-03-05T09:11:06.563Z,47.12
2023-03-05T09:13:08.921Z,46.83
2023-03-05T09:15:11.771Z,47.00
2023-03-05T09:17:13.317Z,46.92
2023-03-05T09:19:15.211Z,46.82
2023-03-05T09:21:17.900Z,46.68
2023-03-05T09:23:19.609Z,46.95
2023-03-05T09:25:21.768Z,47.08
2023-03-05T09:27:23.857Z,46.87
2023-03-05T09:29:26.713Z,47.02
2023-03-05T09:31:28.527Z,47.04
2023-03-05T09:33:31.707Z,46.82
2023-03-05T09:35:37.661Z,46.76
2023-03-05T09:37:39.325Z,46.85
2023-03-05T09:39:40.957Z,46.72
2023-03-05T09:42:00.585Z,46.87
2023-03-05T09:44:24.723Z,47.12
2023-03-05T09:46:52.547Z,47.03
2023-03-05T09:49:12.304Z,46.78
2023-03-05T09:51:29.289Z,47.07
2023-03-05T09:53:50.467Z,46.82
2023-03-05T09:55:57.915Z,47.00
2023-03-05T09:58:06.770Z,46.76
2023-03-05T10:00:26.151Z,47.08
2023-03-05T10:02:36.516Z,46.94
2023-03-05T10:05:03.412Z,46.82
2023-03-05T10:07:15.518Z,47.16
2023-03-05T10:09:22.637Z,46.83
2023-03-05T10:11:38.257Z,46.98
2023-03-05T10:13:45.550Z,47.03
2023-03-05T10:16:22.543Z,46.96
2023-03-05T10:18:36.356Z,47.01
2023-03-05T10:20:43.963Z,46.61
2023-03-05T10:23:05.099Z,46.70
2023-03-05T10:25:09.632Z,46.74
2023-03-05T10:27:20.251Z,46.53
2023-03-05T10:29:46.613Z,46.41
2023-03-05T10:32:05.525Z,46.49
2023-03-05T10:34:21.124Z,46.48
2023-03-05T10:36:51.225Z,46.02
2023-03-05T10:39:39.701Z,46.08
2023-03-05T10:42:02.707Z,46.15
2023-03-05T10:44:16.624Z,45.83
2023-03-05T10:46:22.791Z,45.74
2023-03-05T10:48:47.241Z,46.05
2023-03-05T10:50:54.828Z,45.78
2023-03-05T10:53:27.996Z,45.74
2023-03-05T10:55:29.834Z,45.90
2023-03-05T10:57:32.196Z,45.58
2023-03-05T10:59:33.943Z,45.93
2023-03-05T11:01:37.435Z,45.67
2023-03-05T11:04:06.475Z,45.53
2023-03-05T11:06:12.813Z,45.88
2023-03-05T11:08:35.239Z,45.14
2023-03-05T11:10:37.008Z,45.73
2023-03-05T11:12:39.387Z,45.52
2023-03-05T11:15:07.345Z,45.64
2023-03-05T11:17:38.881Z,45.96
2023-03-05T11:19:41.584Z,46.00
2023-03-05T11:21:44.611Z,45.80
2023-03-05T11:24:06.007Z,45.71
2023-03-05T11:26:13.395Z,45.95
2023-03-05T11:28:32.033Z,45.95
2023-03-05T11:30:36.181Z,45.90
2023-03-05T11:32:38.428Z,45.76
2023-03-05T11:34:40.284Z,45.62
2023-03-05T11:36:43.922Z,45.82
2023-03-05T11:38:55.837Z,45.51
2023-03-05T11:40:57.422Z,45.33
2023-03-05T11:43:01.259Z,45.25
2023-03-05T11:45:04.176Z,45.16
2023-03-05T11:47:29.807Z,45.51
2023-03-05T11:49:34.819Z,45.52
2023-03-05T11:51:44.493Z,45.28
2023-03-05T11:53:51.504Z,45.08
2023-03-05T11:55:59.357Z,45.04
2023-03-05T11:58:07.666Z,44.63
2023-03-05T12:00:15.314Z,45.20
2023-03-05T12:02:20.766Z,45.48
2023-03-05T12:04:23.469Z,45.05
2023-03-05T12:07:03.805Z,45.13
2023-03-05T12:09:33.902Z,44.67
2023-03-05T12:11:36.786Z,44.89
2023-03-05T12:13:45.429Z,44.62
2023-03-05T12:16:06.863Z,44.56
2023-03-05T12:18:28.956Z,44.32
2023-03-05T12:20:45.669Z,44.34
2023-03-05T12:22:47.450Z,44.32
2023-03-05T12:24:50.205Z,44.62
2023-03-05T12:27:03.949Z,44.15
2023-03-05T12:29:05.565Z,44.22
2023-03-05T12:31:10.192Z,44.40
2023-03-05T12:33:39.421Z,44.35
2023-03-05T12:35:41.350Z,44.39
2023-03-05T12:37:43.011Z,44.21
2023-03-05T12:39:44.386Z,44.06
2023-03-05T12:41:46.260Z,44.20
2023-03-05T12:44:06.429Z,43.72
2023-03-05T12:46:29.353Z,43.75
2023-03-05T12:48:31.371Z,44.09
2023-03-05T12:50:39.451Z,43.73
2023-03-05T12:52:45.866Z,43.91
2023-03-05T12:55:03.589Z,43.88
2023-03-05T12:57:18.895Z,44.00
2023-03-05T12:59:23.921Z,44.00
2023-03-05T13:01:43.047Z,43.84
2023-03-05T13:03:45.127Z,43.82
2023-03-05T13:05:56.778Z,43.70
2023-03-05T13:08:16.340Z,42.95
2023-03-05T13:10:29.772Z,43.75
2023-03-05T13:12:32.300Z,43.29
2023-03-05T13:14:43.512Z,43.65
2023-03-05T13:16:45.222Z,43.73
2023-03-05T13:18:51.183Z,43.68
2023-03-05T13:21:05.367Z,43.45
2023-03-05T13:23:18.831Z,43.31
2023-03-05T13:25:20.942Z,43.50
2023-03-05T13:27:30.938Z,43.51
2023-03-05T13:29:32.473Z,43.90
2023-03-05T13:31:36.381Z,43.57
2023-03-05T13:33:38.032Z,43.53
2023-03-05T13:35:47.440Z,43.33
2023-03-05T13:37:49.768Z,43.44
2023-03-05T13:39:57.857Z,43.47
2023-03-05T13:42:07.295Z,43.45
2023-03-05T13:44:20.747Z,43.10
2023-03-05T13:46:24.599Z,43.35
2023-03-05T13:48:28.310Z,43.29
2023-03-05T13:50:38.661Z,43.52
2023-03-05T13:52:40.410Z,43.21
2023-03-05T13:54:42.381Z,43.24
2023-03-05T13:56:58.096Z,43.43
2023-03-05T13:58:59.723Z,43.50
2023-03-05T14:01:15.898Z,42.81
2023-03-05T14:03:20.670Z,42.96
2023-03-05T14:05:22.536Z,43.18
2023-03-05T14:07:40.800Z,42.74
2023-03-05T14:09:47.530Z,43.13
2023-03-05T14:11:55.400Z,42.83
2023-03-05T14:14:05.550Z,43.05
2023-03-05T14:16:25.101Z,42.98
2023-03-05T14:18:32.981Z,42.91
2023-03-05T14:20:34.677Z,43.42
2023-03-05T14:22:39.096Z,43.37
2023-03-05T14:24:52.895Z,42.96
2023-03-05T14:26:57.152Z,43.38
2023-03-05T14:28:59.020Z,42.95
2023-03-05T14:31:00.747Z,43.16
2023-03-05T14:33:03.447Z,43.05
2023-03-05T14:35:06.526Z,43.08
2023-03-05T14:37:22.061Z,43.14
2023-03-05T14:39:50.678Z,42.96
2023-03-05T14:41:52.296Z,43.41
2023-03-05T14:43:53.872Z,42.97
2023-03-05T14:45:55.489Z,43.03
2023-03-05T14:48:00.386Z,43.19
2023-03-05T14:50:02.141Z,43.01
2023-03-05T14:52:03.897Z,43.04
2023-03-05T14:54:05.967Z,43.06
2023-03-05T14:56:18.330Z,43.15
2023-03-05T14:58:22.141Z,42.80
2023-03-05T15:00:28.932Z,42.91
2023-03-05T15:02:30.711Z,42.87
2023-03-05T15:04:32.346Z,42.96
2023-03-05T15:06:38.006Z,43.03
2023-03-05T15:08:39.984Z,42.83
2023-03-05T15:10:41.776Z,43.16
2023-03-05T15:12:44.277Z,43.22
2023-03-05T15:14:45.985Z,43.08
2023-03-05T15:16:48.764Z,42.96
2023-03-05T15:18:50.544Z,42.92
2023-03-05T15:20:52.972Z,42.73
2023-03-05T15:22:55.025Z,42.77
2023-03-05T15:24:56.614Z,42.95
2023-03-05T15:26:58.140Z,42.98
2023-03-05T15:29:00.306Z,43.21
2023-03-05T15:31:03.398Z,43.01
2023-03-05T15:33:07.940Z,42.74
2023-03-05T15:35:10.090Z,42.97
2023-03-05T15:37:11.969Z,42.99
2023-03-05T15:39:13.622Z,43.23
2023-03-05T15:41:16.355Z,42.83
2023-03-05T15:43:19.271Z,42.95
2023-03-05T15:45:21.181Z,42.84
2023-03-05T15:47:22.717Z,43.01
2023-03-05T15:49:25.971Z,42.92
2023-03-05T15:51:27.625Z,42.98
2023-03-05T15:53:29.318Z,43.18
2023-03-05T15:55:30.845Z,43.02
2023-03-05T15:57:51.189Z,43.29
2023-03-05T15:59:53.728Z,43.23
2023-03-05T16:01:55.524Z,42.85
2023-03-05T16:03:57.237Z,43.26
2023-03-05T16:05:58.898Z,43.03
2023-03-05T16:08:01.051Z,43.28
2023-03-05T16:10:03.315Z,43.38
2023-03-05T16:12:10.028Z,43.30
2023-03-05T16:14:11.749Z,43.31
2023-03-05T16:16:13.398Z,43.13
2023-03-05T16:18:16.387Z,43.42
2023-03-05T16:20:18.252Z,43.24
2023-03-05T16:22:19.994Z,43.23
2023-03-05T16:24:21.689Z,43.25
2023-03-05T16:26:23.332Z,43.21
2023-03-05T16:28:25.085Z,43.52
2023-03-05T16:30:26.747Z,43.04
2023-03-05T16:32:28.330Z,43.65
2023-03-05T16:34:32.396Z,43.36
2023-03-05T16:36:35.602Z,43.30
2023-03-05T16:38:38.023Z,43.37
2023-03-05T16:41:06.328Z,43.17
2023-03-05T16:43:01.114Z,42.87
2023-03-05T16:45:03.879Z,43.06
2023-03-05T16:47:07.389Z,42.85
2023-03-05T16:49:09.290Z,43.03
2023-03-05T16:51:11.890Z,43.14
2023-03-05T16:53:13.735Z,43.01
2023-03-05T16:55:15.500Z,42.97
2023-03-05T16:57:17.609Z,43.08
2023-03-05T16:59:19.724Z,43.64
2023-03-05T17:01:22.804Z,43.08
2023-03-05T17:03:24.601Z,43.54
2023-03-05T17:05:28.234Z,43.17
2023-03-05T17:07:29.815Z,43.29
2023-03-05T17:09:31.512Z,43.17
2023-03-05T17:11:33.152Z,43.11
2023-03-05T17:13:35.350Z,43.66
2023-03-05T17:15:37.170Z,43.68
2023-03-05T17:17:39.469Z,43.32
2023-03-05T17:19:41.259Z,43.54
2023-03-05T17:21:43.738Z,43.41
2023-03-05T17:23:45.428Z,43.65
2023-03-05T17:25:47.066Z,43.73
2023-03-05T17:27:48.712Z,43.79
2023-03-05T17:29:50.336Z,43.72
2023-03-05T17:31:53.420Z,43.88
2023-03-05T17:33:55.989Z,43.68
2023-03-05T17:35:58.144Z,43.81
2023-03-05T17:38:03.094Z,43.43
2023-03-05T17:40:05.281Z,43.78
2023-03-05T17:42:07.011Z,43.90
2023-03-05T17:44:08.700Z,43.76
2023-03-05T17:46:11.036Z,43.79
2023-03-05T17:48:13.862Z,43.48
2023-03-05T17:50:15.573Z,43.57
2023-03-05T17:52:21.213Z,43.65
2023-03-05T17:54:23.106Z,43.84
2023-03-05T17:56:26.671Z,43.86
2023-03-05T17:58:28.566Z,43.85
2023-03-05T18:00:31.024Z,43.88
2023-03-05T18:02:33.454Z,43.48
2023-03-05T18:04:35.329Z,43.62
2023-03-05T18:06:37.264Z,43.55
2023-03-05T18:08:39.359Z,43.87
2023-03-05T18:10:40.990Z,43.56
2023-03-05T18:12:42.771Z,43.62
2023-03-05T18:14:44.558Z,43.53
2023-03-05T18:16:46.309Z,43.77
2023-03-05T18:18:47.933Z,43.75
2023-03-05T18:20:49.673Z,43.46
2023-03-05T18:22:51.637Z,43.52
2023-03-05T18:24:53.311Z,43.82
2023-03-05T18:26:54.860Z,43.71
2023-03-05T18:28:56.410Z,43.81
2023-03-05T18:30:58.145Z,43.65
2023-03-05T18:33:00.114Z,43.88
2023-03-05T18:35:01.811Z,44.16
2023-03-05T18:37:03.404Z,43.83
2023-03-05T18:39:05.193Z,43.86
2023-03-05T18:41:08.029Z,43.87
2023-03-05T18:43:09.755Z,43.92
2023-03-05T18:45:14.664Z,44.21
2023-03-05T18:47:16.223Z,44.08
2023-03-05T18:49:17.819Z,44.35
2023-03-05T18:51:21.724Z,44.38
2023-03-05T18:53:23.467Z,44.23
2023-03-05T18:55:28.151Z,44.01
2023-03-05T18:57:29.811Z,44.24
2023-03-05T18:59:31.803Z,44.07
2023-03-05T19:01:33.492Z,44.53
2023-03-05T19:03:35.618Z,44.42
2023-03-05T19:05:38.403Z,44.46
2023-03-05T19:07:40.594Z,44.32
2023-03-05T19:09:54.950Z,44.44
2023-03-05T19:11:56.903Z,44.51
2023-03-05T19:13:58.543Z,44.13
2023-03-05T19:16:02.456Z,44.12
2023-03-05T19:18:04.186Z,44.20
2023-03-05T19:20:07.681Z,44.06
2023-03-05T19:22:11.985Z,43.95
2023-03-05T19:24:14.659Z,44.07
2023-03-05T19:26:16.359Z,43.62
2023-03-05T19:28:17.911Z,43.73
2023-03-05T19:30:19.902Z,43.91
2023-03-05T19:32:21.985Z,43.71
2023-03-05T19:34:23.733Z,43.65
2023-03-05T19:36:25.469Z,43.93
2023-03-05T19:38:27.584Z,43.73
2023-03-05T19:40:29.947Z,43.72
2023-03-05T19:42:31.769Z,43.57
2023-03-05T19:44:33.652Z,43.46
2023-03-05T19:46:35.430Z,44.04
2023-03-05T19:48:38.256Z,43.63
2023-03-05T19:50:40.289Z,43.76
2023-03-05T19:52:41.905Z,43.90
2023-03-05T19:54:43.573Z,43.83
2023-03-05T19:56:47.401Z,43.77
2023-03-05T19:58:49.270Z,43.78
2023-03-05T20:00:50.950Z,43.79
2023-03-05T20:02:52.613Z,44.08
2023-03-05T20:04:55.409Z,43.97
2023-03-05T20:06:57.807Z,44.00
2023-03-05T20:08:59.812Z,43.83
2023-03-05T20:11:02.571Z,44.00
2023-03-05T20:13:04.170Z,43.75
2023-03-05T20:15:06.361Z,43.69
2023-03-05T20:17:08.001Z,43.86
2023-03-05T20:19:16.808Z,43.89
2023-03-05T20:21:23.326Z,43.97
2023-03-05T20:23:24.888Z,44.13
2023-03-05T20:25:26.554Z,44.08
2023-03-05T20:27:28.205Z,44.23
2023-03-05T20:29:29.827Z,44.30
2023-03-05T20:31:37.120Z,43.94
2023-03-05T20:33:39.209Z,44.14
2023-03-05T20:35:41.125Z,44.42
2023-03-05T20:37:49.977Z,44.16
2023-03-05T20:39:52.903Z,44.13
2023-03-05T20:41:54.484Z,44.24
2023-03-05T20:44:00.211Z,44.07
2023-03-05T20:46:07.539Z,44.22
2023-03-05T20:50:44.008Z,43.96
2023-03-05T20:52:45.668Z,44.25
2023-03-05T20:54:47.942Z,44.36
2023-03-05T20:56:49.649Z,44.36
2023-03-05T20:58:51.427Z,44.11
2023-03-05T21:00:53.296Z,44.21
2023-03-05T21:02:56.244Z,44.20
2023-03-05T21:04:57.770Z,44.29
2023-03-05T21:06:59.485Z,44.09
2023-03-05T21:09:01.461Z,44.10
2023-03-05T21:11:10.261Z,44.12
2023-03-05T21:13:11.864Z,44.11
2023-03-05T21:15:15.740Z,44.15
2023-03-05T21:17:17.978Z,44.84
2023-03-05T21:19:19.571Z,43.97
2023-03-05T21:21:21.367Z,44.08
2023-03-05T21:23:22.989Z,44.34
2023-03-05T21:25:27.688Z,44.41
2023-03-05T21:27:29.420Z,44.32
2023-03-05T21:29:30.956Z,44.11
2023-03-05T21:31:32.777Z,44.39
2023-03-05T21:33:34.773Z,43.99
2023-03-05T21:35:37.665Z,44.44
2023-03-05T21:37:42.503Z,44.35
2023-03-05T21:39:44.281Z,44.11
2023-03-05T21:41:47.307Z,44.13
2023-03-05T21:43:48.993Z,44.31
2023-03-05T21:45:53.610Z,44.17
2023-03-05T21:47:56.311Z,44.30
2023-03-05T21:49:57.975Z,44.37
2023-03-05T21:52:12.343Z,44.24
2023-03-05T21:54:14.005Z,44.09
2023-03-05T21:56:16.804Z,44.13
2023-03-05T21:58:18.529Z,44.26
2023-03-05T22:00:23.199Z,44.16
2023-03-05T22:02:25.728Z,44.18
2023-03-05T22:04:27.604Z,44.29
2023-03-05T22:06:29.233Z,43.94
2023-03-05T22:08:31.594Z,44.24
2023-03-05T22:10:33.171Z,44.60
2023-03-05T22:12:52.981Z,44.29
2023-03-05T22:14:55.888Z,44.32
2023-03-05T22:17:02.132Z,44.00
2023-03-05T22:19:05.391Z,44.59
2023-03-05T22:21:17.136Z,44.55
2023-03-05T22:23:22.497Z,44.46
2023-03-05T22:25:24.649Z,44.55
2023-03-05T22:27:26.161Z,44.43
2023-03-05T22:29:28.577Z,44.37
2023-03-05T22:31:30.571Z,44.17
2023-03-05T22:33:32.491Z,44.46
2023-03-05T22:35:34.257Z,44.44
2023-03-05T22:37:35.829Z,44.85
2023-03-05T22:39:37.569Z,44.53
2023-03-05T22:41:40.899Z,44.41
2023-03-05T22:43:42.820Z,44.57
2023-03-05T22:45:44.863Z,44.53
2023-03-05T22:47:48.420Z,44.59
2023-03-05T22:49:49.993Z,44.71
2023-03-05T22:51:51.616Z,44.45
2023-03-05T22:53:53.186Z,44.62
2023-03-05T22:55:54.856Z,44.53
2023-03-05T22:57:56.482Z,44.47
2023-03-05T22:59:58.181Z,44.60
2023-03-05T23:01:59.798Z,44.78
2023-03-05T23:04:08.058Z,44.61
2023-03-05T23:06:10.454Z,44.65
2023-03-05T23:08:12.019Z,44.63
2023-03-05T23:10:20.553Z,44.77
2023-03-05T23:12:24.941Z,44.54
2023-03-05T23:14:26.539Z,44.76
2023-03-05T23:16:28.256Z,44.60
2023-03-05T23:18:29.746Z,44.57
2023-03-05T23:20:34.778Z,44.63
2023-03-05T23:22:37.074Z,44.77
2023-03-05T23:24:39.256Z,44.93
2023-03-05T23:26:40.970Z,44.85
2023-03-05T23:28:42.411Z,44.81
2023-03-05T23:30:44.307Z,44.66
2023-03-05T23:32:58.375Z,44.85
2023-03-05T23:34:59.923Z,44.76
2023-03-05T23:37:01.460Z,44.86
2023-03-05T23:39:03.029Z,44.62
2023-03-05T23:41:08.732Z,44.86
2023-03-05T23:43:11.847Z,44.76
2023-03-05T23:45:15.065Z,44.74
2023-03-05T23:47:17.418Z,44.86
2023-03-05T23:49:19.000Z,44.92
2023-03-05T23:51:20.603Z,44.88
2023-03-05T23:53:28.847Z,44.83
2023-03-05T23:55:34.210Z,44.80
2023-03-05T23:57:36.324Z,44.91
2023-03-05T23:59:38.104Z,44.80
